Time;durP1;ratioP1;P1;durP2;ratioP2;P2;SDS_P1;SDS_P2;PMS_P1;PMS_P2;Temp;Humidity;BMP_temperature;BMP_pressure;BME280_temperature;BME280_humidity;BME280_pressure;Samples;Min_cycle;Max_cycle;Signal;HPM_P1;HPM_P2
2021/01/22 00:00:08;;;;;;;9.63;5.25;;;307.70;1356.80;;;;;;5072063;28;20092;-59
2021/01/22 00:02:34;;;;;;;10.35;4.85;;;307.70;1356.80;;;;;;5073117;28;20021;-60
2021/01/22 00:05:01;;;;;;;9.25;4.60;;;307.60;1382.40;;;;;;5073029;28;20052;-60
2021/01/22 00:07:26;;;;;;;11.38;4.47;;;307.70;1356.80;;;;;;5074304;28;20008;-59
2021/01/22 00:09:52;;;;;;;7.85;4.28;;;307.70;1382.40;;;;;;5074533;28;20500;-60
2021/01/22 00:12:19;;;;;;;7.28;4.10;;;307.80;1356.80;;;;;;5076312;28;20031;-60
2021/01/22 00:14:47;;;;;;;9.48;3.83;;;307.70;1382.40;;;;;;5072715;28;20024;-60
2021/01/22 00:17:13;;;;;;;7.18;3.88;;;307.80;1356.80;;;;;;5073670;28;20107;-59
2021/01/22 00:19:39;;;;;;;9.05;4.57;;;307.80;1356.80;;;;;;5072064;28;20104;-59
2021/01/22 00:22:04;;;;;;;8.10;4.25;;;307.80;1331.20;;;;;;5073193;28;20036;-59
2021/01/22 00:24:30;;;;;;;8.20;4.43;;;307.80;1356.80;;;;;;5071873;28;20037;-59
2021/01/22 00:26:56;;;;;;;11.43;4.90;;;307.80;1331.20;;;;;;5073361;28;20028;-58
2021/01/22 00:29:21;;;;;;;10.15;5.25;;;307.70;1356.80;;;;;;5073249;28;20103;-60
2021/01/22 00:31:47;;;;;;;8.50;4.70;;;307.70;1356.80;;;;;;5075440;28;20024;-60
2021/01/22 00:34:13;;;;;;;11.40;6.07;;;307.60;1382.40;;;;;;5074205;28;20029;-60
2021/01/22 00:36:38;;;;;;;9.32;5.40;;;307.70;1356.80;;;;;;5072364;28;20031;-60
2021/01/22 00:39:05;;;;;;;10.95;5.70;;;307.60;1382.40;;;;;;5075180;28;20410;-59
2021/01/22 00:41:31;;;;;;;11.38;6.63;;;307.50;1382.40;;;;;;5073397;28;20032;-59
2021/01/22 00:43:56;;;;;;;11.32;6.80;;;307.50;1382.40;;;;;;5074633;28;20074;-60
2021/01/22 00:46:22;;;;;;;10.02;6.20;;;307.50;1382.40;;;;;;5073363;28;20017;-59
2021/01/22 00:48:48;;;;;;;11.05;6.45;;;307.50;1356.80;;;;;;5073566;28;20037;-60
2021/01/22 00:51:14;;;;;;;10.57;6.55;;;307.40;1356.80;;;;;;5089908;28;20020;-60
2021/01/22 00:53:40;;;;;;;10.73;5.60;;;307.50;1356.80;;;;;;5109807;28;20020;-60
2021/01/22 00:56:06;;;;;;;11.02;5.75;;;307.50;1382.40;;;;;;5108888;28;20028;-59
2021/01/22 00:58:32;;;;;;;9.60;5.95;;;307.50;1356.80;;;;;;5112262;28;20031;-61
2021/01/22 01:00:58;;;;;;;9.32;5.40;;;307.50;1356.80;;;;;;5122652;28;20040;-60
2021/01/22 01:03:24;;;;;;;12.02;6.07;;;307.50;1356.80;;;;;;5123694;28;20051;-61
2021/01/22 01:05:49;;;;;;;10.52;5.72;;;307.40;1356.80;;;;;;5123004;28;20040;-61
2021/01/22 01:08:15;;;;;;;8.80;5.13;;;307.40;1356.80;;;;;;5124838;28;20023;-63
2021/01/22 01:10:41;;;;;;;8.75;5.38;;;307.40;1356.80;;;;;;5122162;28;20019;-61
2021/01/22 01:13:06;;;;;;;10.32;6.25;;;307.40;1356.80;;;;;;5117167;28;20030;-59
2021/01/22 01:15:33;;;;;;;9.10;5.47;;;307.40;1356.80;;;;;;5113877;28;20022;-59
2021/01/22 01:17:59;;;;;;;12.30;5.30;;;307.40;1356.80;;;;;;5109641;28;20054;-60
2021/01/22 01:20:25;;;;;;;8.00;5.05;;;307.40;1356.80;;;;;;5109935;28;20019;-61
2021/01/22 01:22:51;;;;;;;9.00;4.38;;;307.40;1331.20;;;;;;5110149;28;20107;-60
2021/01/22 01:25:17;;;;;;;8.90;4.85;;;307.40;1331.20;;;;;;5114730;28;20063;-60
2021/01/22 01:27:43;;;;;;;6.80;4.40;;;307.40;1356.80;;;;;;5112158;28;20493;-59
2021/01/22 01:30:09;;;;;;;13.73;5.72;;;307.50;1331.20;;;;;;5105449;28;20057;-59
2021/01/22 01:32:35;;;;;;;6.43;4.50;;;307.50;1331.20;;;;;;5100399;28;20024;-61
2021/01/22 01:35:00;;;;;;;9.38;5.25;;;307.50;1331.20;;;;;;5102751;28;20031;-61
2021/01/22 01:37:26;;;;;;;12.38;5.75;;;307.50;1356.80;;;;;;5095846;28;20024;-61
2021/01/22 01:39:52;;;;;;;11.25;5.95;;;307.50;1356.80;;;;;;5096027;28;20374;-59
2021/01/22 01:42:17;;;;;;;10.90;6.43;;;307.50;1331.20;;;;;;5095422;28;20059;-59
2021/01/22 01:44:43;;;;;;;8.70;5.35;;;307.50;1331.20;;;;;;5073231;28;20032;-59
2021/01/22 01:47:09;;;;;;;10.27;5.85;;;307.50;1331.20;;;;;;5095569;28;20028;-59
2021/01/22 01:49:35;;;;;;;10.77;6.57;;;307.60;1331.20;;;;;;5095629;28;20032;-60
2021/01/22 01:52:00;;;;;;;10.32;5.90;;;307.50;1305.60;;;;;;5095579;28;20017;-59
2021/01/22 01:54:27;;;;;;;9.13;6.28;;;307.50;1305.60;;;;;;5095455;28;20099;-59
2021/01/22 01:56:52;;;;;;;9.07;5.63;;;307.50;1305.60;;;;;;5095783;28;20023;-58
2021/01/22 01:59:18;;;;;;;9.48;6.10;;;307.50;1331.20;;;;;;5105143;28;20036;-59
2021/01/22 02:01:45;;;;;;;9.30;4.88;;;307.40;1331.20;;;;;;5098962;28;20440;-59
2021/01/22 02:04:11;;;;;;;8.07;5.43;;;307.20;1356.80;;;;;;5095495;28;20040;-59
2021/01/22 02:06:37;;;;;;;11.73;6.15;;;307.20;1356.80;;;;;;5095380;28;20036;-60
2021/01/22 02:09:03;;;;;;;10.07;5.25;;;307.20;1356.80;;;;;;5109647;28;20027;-59
2021/01/22 02:11:30;;;;;;;11.05;5.43;;;307.20;1356.80;;;;;;5083953;28;20393;-59
2021/01/22 02:13:57;;;;;;;10.82;5.97;;;282.50;1331.20;;;;;;5106724;28;20140;-59
2021/01/22 02:16:24;;;;;;;8.95;5.55;;;282.50;1331.20;;;;;;5103179;28;20111;-58
2021/01/22 02:18:53;;;;;;;9.63;5.22;;;282.20;1356.80;;;;;;5114946;28;20059;-61
2021/01/22 02:21:31;;;;;;;11.05;6.30;;;282.10;1356.80;;;;;;5092675;28;20039;-61
2021/01/22 02:24:05;;;;;;;10.13;5.47;;;282.10;1382.40;;;;;;5094970;28;20024;-61
2021/01/22 02:26:37;;;;;;;7.90;5.57;;;282.10;1382.40;;;;;;5082473;28;20073;-61
2021/01/22 02:29:06;;;;;;;6.93;4.38;;;282.00;1408.00;;;;;;5094928;28;20144;-60
2021/01/22 02:31:35;;;;;;;11.20;5.00;;;281.90;1408.00;;;;;;5094926;28;20020;-60
2021/01/22 02:34:08;;;;;;;10.27;4.78;;;281.80;1408.00;;;;;;5093516;28;20028;-61
2021/01/22 02:36:36;;;;;;;7.35;4.95;;;281.80;1408.00;;;;;;5094813;28;20058;-61
2021/01/22 02:39:04;;;;;;;12.32;5.60;;;281.70;1408.00;;;;;;5098582;28;20031;-61
2021/01/22 02:41:32;;;;;;;10.35;5.22;;;281.70;1408.00;;;;;;5098705;28;20047;-61
2021/01/22 02:44:03;;;;;;;7.50;4.23;;;281.60;1433.60;;;;;;5092487;28;20477;-61
2021/01/22 02:46:30;;;;;;;11.45;4.80;;;281.60;1408.00;;;;;;5094966;28;20016;-62
2021/01/22 02:48:57;;;;;;;9.10;4.60;;;281.60;1408.00;;;;;;5094817;28;20106;-61
2021/01/22 02:51:23;;;;;;;7.57;4.05;;;256.90;1408.00;;;;;;5094658;28;20526;-62
2021/01/22 02:53:49;;;;;;;9.43;5.15;;;256.90;1382.40;;;;;;5094474;28;20099;-61
2021/01/22 02:56:38;;;;;;;11.38;5.03;;;281.60;1408.00;;;;;;5094687;28;20480;-61
2021/01/22 02:59:49;;;;;;;9.40;5.22;;;256.90;1408.00;;;;;;5094148;28;20027;-61
2021/01/22 03:02:40;;;;;;;11.55;4.78;;;256.80;1408.00;;;;;;5025260;28;20029;-61
2021/01/22 03:05:07;;;;;;;7.13;4.07;;;256.90;1433.60;;;;;;5031654;28;20042;-60
2021/01/22 03:07:57;;;;;;;6.72;4.60;;;256.80;1433.60;;;;;;5031475;28;20022;-61
2021/01/22 03:10:25;;;;;;;9.00;4.68;;;256.70;1433.60;;;;;;5032035;28;20037;-61
2021/01/22 03:12:54;;;;;;;9.30;5.13;;;256.60;1433.60;;;;;;5032020;28;20100;-61
2021/01/22 03:15:21;;;;;;;8.93;5.00;;;256.60;1433.60;;;;;;5031914;28;20599;-61
2021/01/22 03:17:47;;;;;;;7.95;5.00;;;256.60;1459.20;;;;;;5031713;28;20037;-61
2021/01/22 03:20:15;;;;;;;10.35;4.75;;;256.50;1459.20;;;;;;5031894;28;20083;-61
2021/01/22 03:22:40;;;;;;;9.93;5.05;;;256.40;1484.80;;;;;;5031341;28;20045;-61
2021/01/22 03:25:07;;;;;;;11.45;6.32;;;256.40;1459.20;;;;;;5031862;28;20033;-62
2021/01/22 03:27:33;;;;;;;10.45;6.05;;;256.30;1484.80;;;;;;5032292;28;20108;-62
2021/01/22 03:29:58;;;;;;;8.10;5.70;;;256.30;1484.80;;;;;;5033576;28;20436;-62
2021/01/22 03:32:24;;;;;;;9.80;5.55;;;256.30;1484.80;;;;;;5033393;28;20626;-61
2021/01/22 03:34:50;;;;;;;10.25;6.50;;;256.20;1484.80;;;;;;5032215;28;20029;-62
2021/01/22 03:37:16;;;;;;;13.35;6.18;;;256.00;1510.40;;;;;;5088049;28;20148;-62
2021/01/22 03:39:42;;;;;;;12.02;6.45;;;256.10;1510.40;;;;;;5093824;28;20020;-61
2021/01/22 03:42:07;;;;;;;9.40;6.10;;;256.10;1510.40;;;;;;5093709;28;20034;-61
2021/01/22 03:44:33;;;;;;;11.68;6.10;;;256.00;1510.40;;;;;;5092998;28;20032;-63
2021/01/22 03:46:59;;;;;;;13.30;6.22;;;231.30;1510.40;;;;;;5093402;28;20497;-62
2021/01/22 03:49:24;;;;;;;8.48;6.45;;;231.20;1536.00;;;;;;5093539;28;20035;-61
2021/01/22 03:51:50;;;;;;;13.80;6.70;;;231.10;1536.00;;;;;;5093339;28;20016;-62
2021/01/22 03:54:16;;;;;;;12.13;7.15;;;231.10;1561.60;;;;;;5093185;28;20028;-61
2021/01/22 03:56:42;;;;;;;12.98;6.05;;;231.10;1561.60;;;;;;5093503;28;20082;-61
2021/01/22 03:59:08;;;;;;;10.48;6.35;;;231.20;1561.60;;;;;;5093338;28;20032;-61
2021/01/22 04:01:33;;;;;;;10.07;6.55;;;231.20;1561.60;;;;;;5093423;28;20028;-62
2021/01/22 04:03:59;;;;;;;9.93;6.25;;;231.10;1561.60;;;;;;5078622;28;20036;-61
2021/01/22 04:06:25;;;;;;;9.85;5.93;;;231.10;1561.60;;;;;;5093354;28;20068;-62
2021/01/22 04:08:51;;;;;;;12.50;6.88;;;231.10;1561.60;;;;;;5093128;28;20020;-61
2021/01/22 04:11:17;;;;;;;14.52;6.47;;;231.20;1561.60;;;;;;5093466;28;20019;-62
2021/01/22 04:13:44;;;;;;;11.13;6.30;;;231.10;1561.60;;;;;;5092705;28;20501;-61
2021/01/22 04:16:11;;;;;;;8.90;5.72;;;231.10;1561.60;;;;;;5093250;28;20027;-64
2021/01/22 04:18:37;;;;;;;10.43;5.95;;;231.10;1561.60;;;;;;5092840;28;20028;-62
2021/01/22 04:21:03;;;;;;;9.85;6.15;;;231.10;1561.60;;;;;;5093171;28;20474;-60
2021/01/22 04:23:29;;;;;;;10.50;6.47;;;231.00;1561.60;;;;;;5093017;28;20114;-61
2021/01/22 04:25:54;;;;;;;14.68;6.85;;;231.20;1561.60;;;;;;5093162;28;20101;-61
2021/01/22 04:28:20;;;;;;;11.02;6.63;;;231.10;1561.60;;;;;;5093296;28;20024;-61
2021/01/22 04:30:45;;;;;;;10.18;7.18;;;231.20;1561.60;;;;;;5093184;28;20021;-61
2021/01/22 04:33:11;;;;;;;10.23;7.13;;;231.10;1561.60;;;;;;5092629;28;20028;-61
2021/01/22 04:35:37;;;;;;;12.60;7.35;;;231.10;1587.20;;;;;;5092854;28;20028;-61
2021/01/22 04:38:02;;;;;;;11.13;7.00;;;231.10;1587.20;;;;;;5092754;28;20017;-61
2021/01/22 04:40:28;;;;;;;9.43;6.88;;;231.10;1587.20;;;;;;5092869;28;20032;-61
2021/01/22 04:42:54;;;;;;;12.18;7.13;;;231.00;1587.20;;;;;;5092946;28;20024;-61
2021/01/22 04:45:20;;;;;;;12.45;6.97;;;230.90;1612.80;;;;;;5092867;28;20377;-61
2021/01/22 04:47:46;;;;;;;12.85;7.68;;;230.90;1612.80;;;;;;5093103;28;20059;-61
2021/01/22 04:50:15;;;;;;;11.95;7.35;;;230.90;1612.80;;;;;;5090061;28;20124;-62
2021/01/22 04:52:42;;;;;;;9.68;6.15;;;230.90;1612.80;;;;;;5092436;28;20020;-61
2021/01/22 04:55:12;;;;;;;12.98;6.40;;;230.80;1612.80;;;;;;5092732;28;20532;-60
2021/01/22 04:57:41;;;;;;;10.23;6.90;;;230.90;1612.80;;;;;;5094261;28;20485;-60
2021/01/22 05:00:08;;;;;;;12.40;7.13;;;230.80;1638.40;;;;;;5097229;28;20020;-61
2021/01/22 05:02:34;;;;;;;14.07;7.53;;;230.80;1638.40;;;;;;5096670;28;20032;-61
2021/01/22 05:05:01;;;;;;;13.40;8.60;;;230.80;1638.40;;;;;;5096409;28;20044;-61
2021/01/22 05:07:29;;;;;;;11.90;7.03;;;230.80;1638.40;;;;;;5096306;28;20024;-61
2021/01/22 05:09:55;;;;;;;12.18;7.78;;;230.80;1612.80;;;;;;5078521;28;20389;-61
2021/01/22 05:12:21;;;;;;;10.23;6.40;;;230.70;1638.40;;;;;;5096518;28;20016;-61
2021/01/22 05:14:47;;;;;;;13.63;7.43;;;230.70;1638.40;;;;;;5078334;28;20066;-61
2021/01/22 05:17:13;;;;;;;10.93;6.55;;;230.70;1638.40;;;;;;5096460;28;20024;-60
2021/01/22 05:19:42;;;;;;;11.85;6.75;;;230.80;1638.40;;;;;;5096353;28;20023;-61
2021/01/22 05:22:13;;;;;;;11.23;7.22;;;230.80;1638.40;;;;;;5095971;28;20031;-62
2021/01/22 05:24:38;;;;;;;10.80;7.00;;;230.70;1638.40;;;;;;5096335;28;20044;-61
2021/01/22 05:27:12;;;;;;;12.85;7.03;;;230.70;1664.00;;;;;;5096267;28;20024;-61
2021/01/22 05:29:42;;;;;;;11.25;7.00;;;230.80;1664.00;;;;;;5096479;28;20024;-62
2021/01/22 05:32:27;;;;;;;10.90;7.00;;;230.70;1638.40;;;;;;5088231;28;20032;-60
2021/01/22 05:34:52;;;;;;;12.02;6.15;;;230.70;1638.40;;;;;;5096686;28;20106;-61
2021/01/22 05:37:19;;;;;;;10.25;6.65;;;230.80;1664.00;;;;;;5095930;28;20120;-60
2021/01/22 05:39:44;;;;;;;10.98;6.38;;;230.70;1638.40;;;;;;5095947;28;20016;-61
2021/01/22 05:42:12;;;;;;;12.30;7.07;;;230.70;1664.00;;;;;;5096086;28;20028;-61
2021/01/22 05:44:53;;;;;;;12.48;7.20;;;230.80;1664.00;;;;;;5095955;28;20508;-62
2021/01/22 05:47:18;;;;;;;10.75;6.55;;;230.70;1664.00;;;;;;5089419;28;20016;-61
2021/01/22 05:50:02;;;;;;;23.60;8.27;;;230.70;1664.00;;;;;;5095769;28;20042;-61
2021/01/22 05:52:28;;;;;;;12.65;6.93;;;230.70;1664.00;;;;;;5095688;28;20020;-61
2021/01/22 05:54:54;;;;;;;13.52;6.60;;;230.70;1664.00;;;;;;5096271;28;20035;-61
2021/01/22 05:57:19;;;;;;;11.63;6.43;;;230.70;1664.00;;;;;;5095833;28;20031;-62
2021/01/22 05:59:45;;;;;;;13.93;6.10;;;230.80;1664.00;;;;;;5095582;28;20073;-60
2021/01/22 06:02:31;;;;;;;10.75;6.05;;;230.70;1664.00;;;;;;5095963;28;20062;-62
2021/01/22 06:05:14;;;;;;;11.38;7.47;;;230.70;1664.00;;;;;;5095533;28;20044;-60
2021/01/22 06:07:42;;;;;;;14.00;6.95;;;230.80;1664.00;;;;;;5095268;28;20107;-61
2021/01/22 06:10:17;;;;;;;12.60;6.50;;;230.80;1664.00;;;;;;5095703;28;20061;-61
2021/01/22 06:12:48;;;;;;;12.48;6.78;;;230.70;1664.00;;;;;;5095349;28;20052;-61
2021/01/22 06:15:16;;;;;;;10.35;6.07;;;230.70;1664.00;;;;;;5095515;28;20023;-61
2021/01/22 06:17:46;;;;;;;12.07;6.43;;;230.70;1689.60;;;;;;5095877;28;20024;-61
2021/01/22 06:20:15;;;;;;;11.23;6.88;;;230.70;1689.60;;;;;;5095234;28;20347;-61
2021/01/22 06:22:50;;;;;;;15.23;7.13;;;230.80;1664.00;;;;;;5094837;28;20095;-61
2021/01/22 06:25:17;;;;;;;18.40;7.75;;;230.80;1664.00;;;;;;5095026;28;20024;-61
2021/01/22 06:27:45;;;;;;;13.85;6.82;;;230.90;1664.00;;;;;;5095225;28;20024;-74
2021/01/22 06:30:12;;;;;;;16.55;7.07;;;231.00;1638.40;;;;;;5101789;28;20481;-65
2021/01/22 06:32:40;;;;;;;16.23;7.07;;;231.00;1638.40;;;;;;5112615;28;20028;-62
2021/01/22 06:35:07;;;;;;;12.85;7.05;;;231.10;1638.40;;;;;;5114459;28;20028;-62
2021/01/22 06:37:35;;;;;;;11.52;7.13;;;231.10;1638.40;;;;;;5114593;28;20011;-63
2021/01/22 06:40:04;;;;;;;14.63;7.10;;;231.20;1638.40;;;;;;5115487;28;20016;-61
2021/01/22 06:42:35;;;;;;;13.10;6.22;;;231.20;1638.40;;;;;;5106332;28;20047;-62
2021/01/22 06:45:00;;;;;;;11.90;6.57;;;231.30;1638.40;;;;;;5111463;28;20051;-63
2021/01/22 06:47:26;;;;;;;16.00;8.02;;;231.30;1638.40;;;;;;5112069;28;20462;-62
2021/01/22 06:49:52;;;;;;;15.07;7.03;;;256.10;1612.80;;;;;;5111574;28;20031;-61
2021/01/22 06:52:18;;;;;;;14.30;6.40;;;256.20;1612.80;;;;;;5112662;28;20107;-62
2021/01/22 06:55:04;;;;;;;11.52;5.93;;;256.20;1587.20;;;;;;5111615;28;20471;-61
2021/01/22 06:57:30;;;;;;;11.43;6.10;;;256.40;1587.20;;;;;;5113739;28;20110;-61
2021/01/22 06:59:57;;;;;;;18.63;6.75;;;256.40;1587.20;;;;;;5113576;28;20020;-62
2021/01/22 07:02:32;;;;;;;11.38;6.47;;;256.50;1587.20;;;;;;5111779;28;20473;-62
2021/01/22 07:04:58;;;;;;;13.10;7.05;;;256.60;1587.20;;;;;;5110710;28;20081;-62
2021/01/22 07:07:46;;;;;;;13.70;6.47;;;256.70;1561.60;;;;;;5111834;28;20576;-62
2021/01/22 07:10:12;;;;;;;9.70;6.33;;;256.90;1536.00;;;;;;5111453;28;20007;-63
2021/01/22 07:12:40;;;;;;;9.18;6.32;;;281.60;1561.60;;;;;;5113207;28;20465;-63
2021/01/22 07:15:24;;;;;;;11.38;6.63;;;281.80;1536.00;;;;;;5112889;28;20030;-61
2021/01/22 07:17:59;;;;;;;11.55;6.80;;;281.90;1561.60;;;;;;5101190;28;20473;-61
2021/01/22 07:20:25;;;;;;;12.13;6.63;;;282.00;1536.00;;;;;;5110816;28;20024;-61
2021/01/22 07:22:56;;;;;;;15.23;6.82;;;282.20;1510.40;;;;;;5112143;28;20032;-61
2021/01/22 07:25:30;;;;;;;13.95;6.30;;;282.40;1484.80;;;;;;5109989;28;20076;-64
2021/01/22 07:27:56;;;;;;;13.50;7.45;;;282.40;1484.80;;;;;;5107509;28;20026;-63
2021/01/22 07:30:22;;;;;;;15.23;6.43;;;307.20;1484.80;;;;;;5111600;28;20377;-65
2021/01/22 07:32:50;;;;;;;14.70;6.32;;;307.30;1484.80;;;;;;5111996;28;20035;-65
2021/01/22 07:35:24;;;;;;;13.38;6.80;;;307.50;1459.20;;;;;;5112801;28;20073;-62
2021/01/22 07:37:50;;;;;;;14.90;7.15;;;307.50;1484.80;;;;;;5113869;28;20039;-62
2021/01/22 07:40:17;;;;;;;14.18;7.20;;;307.60;1459.20;;;;;;5111040;28;20477;-65
2021/01/22 07:42:44;;;;;;;12.68;6.63;;;307.60;1459.20;;;;;;5111780;28;20041;-62
2021/01/22 07:45:17;;;;;;;11.82;6.53;;;307.70;1459.20;;;;;;5110413;28;20020;-61
2021/01/22 07:47:45;;;;;;;13.63;7.68;;;307.80;1459.20;;;;;;5111790;28;20044;-61
2021/01/22 07:50:13;;;;;;;10.85;7.68;;;308.00;1433.60;;;;;;5111787;28;20392;-62
2021/01/22 07:52:41;;;;;;;15.52;7.82;;;308.00;1433.60;;;;;;5107792;28;20095;-61
2021/01/22 07:55:25;;;;;;;15.10;8.13;;;308.10;1433.60;;;;;;5110461;28;20019;-62
2021/01/22 07:58:05;;;;;;;13.95;7.80;;;308.00;1433.60;;;;;;5106846;28;20020;-62
2021/01/22 08:00:40;;;;;;;13.10;7.40;;;308.10;1408.00;;;;;;5110298;28;20024;-61
2021/01/22 08:03:07;;;;;;;13.68;7.63;;;332.80;1433.60;;;;;;5112224;28;20031;-62
2021/01/22 08:05:37;;;;;;;14.93;7.82;;;333.00;1408.00;;;;;;5097159;28;20055;-62
2021/01/22 08:08:18;;;;;;;16.73;8.55;;;333.10;1408.00;;;;;;5093045;28;20494;-61
2021/01/22 08:10:44;;;;;;;16.50;8.32;;;333.20;1408.00;;;;;;5092853;28;20027;-61
2021/01/22 08:13:10;;;;;;;15.95;8.15;;;333.20;1408.00;;;;;;5092957;28;20024;-61
2021/01/22 08:15:36;;;;;;;17.10;8.73;;;333.30;1382.40;;;;;;5096349;28;20500;-62
2021/01/22 08:18:05;;;;;;;14.05;8.90;;;333.50;1382.40;;;;;;5108245;28;20149;-61
2021/01/22 08:20:33;;;;;;;17.42;8.98;;;333.50;1382.40;;;;;;5111127;28;20073;-63
2021/01/22 08:22:58;;;;;;;18.83;8.48;;;333.50;1382.40;;;;;;5106526;28;20038;-62
2021/01/22 08:25:29;;;;;;;16.63;8.73;;;333.30;1408.00;;;;;;5112330;28;20023;-63
2021/01/22 08:27:56;;;;;;;15.43;8.77;;;333.30;1408.00;;;;;;5111618;28;20016;-63
2021/01/22 08:30:26;;;;;;;13.57;8.95;;;333.40;1408.00;;;;;;5111223;28;20111;-64
2021/01/22 08:32:53;;;;;;;16.38;8.18;;;333.40;1382.40;;;;;;5112543;28;20057;-64
2021/01/22 08:35:22;;;;;;;15.15;8.27;;;333.50;1382.40;;;;;;5105308;28;20031;-64
2021/01/22 08:37:49;;;;;;;13.80;8.15;;;333.50;1382.40;;;;;;5110149;28;20542;-63
2021/01/22 08:40:15;;;;;;;12.18;7.55;;;333.60;1382.40;;;;;;5111266;28;20031;-64
2021/01/22 08:42:56;;;;;;;14.40;7.20;;;333.60;1382.40;;;;;;5109879;28;20134;-61
2021/01/22 08:45:21;;;;;;;14.32;7.85;;;358.40;1356.80;;;;;;5111133;28;20031;-65
2021/01/22 08:47:47;;;;;;;14.80;7.53;;;358.40;1356.80;;;;;;5110008;28;20023;-63
2021/01/22 08:50:17;;;;;;;12.02;7.28;;;358.40;1356.80;;;;;;5112353;28;20027;-63
2021/01/22 08:52:42;;;;;;;14.35;7.00;;;358.50;1356.80;;;;;;5090762;28;20043;-62
2021/01/22 08:55:19;;;;;;;14.02;7.28;;;358.50;1356.80;;;;;;5110574;28;20743;-63
2021/01/22 08:58:04;;;;;;;11.20;6.95;;;358.60;1331.20;;;;;;5107796;28;20492;-60
2021/01/22 09:00:30;;;;;;;16.40;7.32;;;358.70;1331.20;;;;;;5110930;28;20024;-62
2021/01/22 09:02:57;;;;;;;13.90;7.63;;;358.70;1331.20;;;;;;5109897;28;20023;-62
2021/01/22 09:05:23;;;;;;;17.55;7.40;;;358.60;1331.20;;;;;;5111384;28;20493;-62
2021/01/22 09:08:09;;;;;;;14.15;7.72;;;358.60;1356.80;;;;;;5108055;28;20114;-62
2021/01/22 09:10:40;;;;;;;12.73;8.05;;;358.70;1356.80;;;;;;5104824;28;20046;-64
2021/01/22 09:13:13;;;;;;;18.90;8.60;;;358.80;1331.20;;;;;;5108883;28;20020;-62
2021/01/22 09:15:41;;;;;;;12.13;7.32;;;358.70;1356.80;;;;;;5111249;28;20503;-64
2021/01/22 09:18:16;;;;;;;15.40;8.43;;;358.90;1331.20;;;;;;5110174;28;20021;-61
2021/01/22 09:20:44;;;;;;;12.68;8.00;;;358.90;1331.20;;;;;;5112107;28;20015;-61
2021/01/22 09:23:10;;;;;;;19.23;8.98;;;359.00;1331.20;;;;;;5109220;28;20023;-61
2021/01/22 09:25:36;;;;;;;14.38;8.25;;;359.10;1305.60;;;;;;5110915;28;20100;-62
2021/01/22 09:28:02;;;;;;;14.02;7.18;;;359.00;1305.60;;;;;;5110935;28;20023;-61
2021/01/22 09:30:28;;;;;;;16.58;8.45;;;359.00;1305.60;;;;;;5105600;28;20545;-62
2021/01/22 09:32:57;;;;;;;16.52;9.40;;;359.20;1305.60;;;;;;5096411;28;20370;-63
2021/01/22 09:35:25;;;;;;;13.25;7.93;;;359.30;1280.00;;;;;;5102133;28;20035;-66
2021/01/22 09:37:51;;;;;;;16.88;8.00;;;384.00;1280.00;;;;;;5107771;28;20024;-63
2021/01/22 09:40:18;;;;;;;15.40;7.75;;;384.10;1433.60;;;;;;5109359;28;20020;-63
2021/01/22 09:42:44;;;;;;;14.27;7.18;;;384.20;1280.00;;;;;;5110742;28;20023;-63
2021/01/22 09:45:11;;;;;;;15.23;6.97;;;384.30;1254.40;;;;;;5113883;28;20032;-64
2021/01/22 09:47:38;;;;;;;16.58;7.43;;;384.30;1254.40;;;;;;5106673;28;20027;-63
2021/01/22 09:50:05;;;;;;;15.90;8.13;;;384.30;1254.40;;;;;;5085627;28;20028;-65
2021/01/22 09:52:33;;;;;;;14.03;6.70;;;384.40;1254.40;;;;;;5101600;28;20023;-70
2021/01/22 09:54:59;;;;;;;14.75;8.30;;;384.30;1254.40;;;;;;5111815;28;20485;-61
2021/01/22 09:57:24;;;;;;;16.90;7.68;;;384.50;1254.40;;;;;;5095952;28;20046;-66
2021/01/22 09:59:50;;;;;;;10.75;6.95;;;384.60;1254.40;;;;;;5093644;28;20458;-65
2021/01/22 10:02:16;;;;;;;9.45;6.60;;;384.60;1254.40;;;;;;5093700;28;20446;-61
2021/01/22 10:04:41;;;;;;;13.13;6.60;;;384.40;1254.40;;;;;;5108062;28;20542;-59
2021/01/22 10:07:07;;;;;;;12.38;7.15;;;384.50;1228.80;;;;;;5112110;28;20034;-59
2021/01/22 10:09:33;;;;;;;12.70;6.70;;;384.30;1254.40;;;;;;5109922;28;20465;-59
2021/01/22 10:11:59;;;;;;;11.75;6.75;;;384.50;1254.40;;;;;;5112744;28;20023;-59
2021/01/22 10:14:25;;;;;;;15.30;7.38;;;384.30;1280.00;;;;;;5107748;28;20429;-61
2021/01/22 10:16:51;;;;;;;10.23;6.22;;;384.40;1254.40;;;;;;5111427;28;20076;-61
2021/01/22 10:19:17;;;;;;;13.35;6.13;;;384.50;1254.40;;;;;;5110254;28;20011;-61
2021/01/22 10:21:43;;;;;;;10.55;5.65;;;384.50;1254.40;;;;;;5099178;28;20363;-60
2021/01/22 10:24:10;;;;;;;10.60;5.68;;;384.50;1254.40;;;;;;5093495;28;20043;-61
2021/01/22 10:26:36;;;;;;;10.98;6.55;;;384.60;1228.80;;;;;;5087343;28;20021;-60
2021/01/22 10:29:02;;;;;;;11.98;6.45;;;384.70;1228.80;;;;;;5093542;28;20424;-60
2021/01/22 10:31:28;;;;;;;11.20;6.47;;;384.80;1203.20;;;;;;5101862;28;20488;-60
2021/01/22 10:33:54;;;;;;;11.73;6.53;;;384.80;1254.40;;;;;;5107250;28;20070;-60
2021/01/22 10:36:20;;;;;;;12.85;7.05;;;384.80;1228.80;;;;;;5094075;28;20028;-60
2021/01/22 10:38:46;;;;;;;10.80;6.30;;;384.70;1228.80;;;;;;5103159;28;20308;-61
2021/01/22 10:41:12;;;;;;;13.90;6.50;;;384.90;1228.80;;;;;;5095835;28;20426;-60
2021/01/22 10:43:38;;;;;;;11.82;5.82;;;384.90;1228.80;;;;;;5109625;28;20047;-60
2021/01/22 10:46:04;;;;;;;11.25;5.63;;;409.70;1254.40;;;;;;5087846;28;20385;-61
2021/01/22 10:48:30;;;;;;;12.23;6.60;;;409.80;1228.80;;;;;;5092919;28;20053;-62
2021/01/22 10:50:56;;;;;;;11.77;6.53;;;409.80;1228.80;;;;;;5094227;28;20115;-60
2021/01/22 10:53:23;;;;;;;11.02;6.25;;;409.80;1228.80;;;;;;5094685;28;20410;-61
2021/01/22 10:55:49;;;;;;;13.00;7.07;;;410.10;1203.20;;;;;;5093423;28;20107;-64
2021/01/22 10:58:15;;;;;;;15.05;6.70;;;410.20;1203.20;;;;;;5107707;28;20090;-58
2021/01/22 11:00:41;;;;;;;10.68;6.10;;;410.20;1203.20;;;;;;5093882;28;20116;-59
2021/01/22 11:03:07;;;;;;;13.32;6.53;;;410.40;1177.60;;;;;;5094140;28;20032;-57
2021/01/22 11:05:33;;;;;;;11.93;6.75;;;410.40;1177.60;;;;;;5095218;28;20058;-58
2021/01/22 11:07:59;;;;;;;13.55;6.22;;;435.20;1152.00;;;;;;5094502;28;20020;-56
2021/01/22 11:10:25;;;;;;;8.95;6.10;;;435.20;1152.00;;;;;;5095135;28;20035;-57
2021/01/22 11:12:53;;;;;;;11.70;6.60;;;435.40;1152.00;;;;;;5093883;28;20374;-58
2021/01/22 11:15:19;;;;;;;11.15;5.75;;;435.40;1152.00;;;;;;5093842;28;20469;-57
2021/01/22 11:17:44;;;;;;;12.52;6.30;;;435.40;1126.40;;;;;;5093914;28;20070;-58
2021/01/22 11:20:11;;;;;;;15.15;6.75;;;435.40;1152.00;;;;;;5093701;28;20032;-57
2021/01/22 11:22:36;;;;;;;12.88;6.20;;;435.30;1152.00;;;;;;5093725;28;20424;-58
2021/01/22 11:25:05;;;;;;;11.98;6.53;;;435.20;1152.00;;;;;;5098044;28;20087;-58
2021/01/22 11:27:31;;;;;;;14.63;6.97;;;410.40;1152.00;;;;;;5098838;28;20020;-57
2021/01/22 11:29:57;;;;;;;12.77;6.90;;;410.10;1203.20;;;;;;5093637;28;20032;-58
2021/01/22 11:32:23;;;;;;;14.05;6.40;;;410.30;1177.60;;;;;;5111979;28;20027;-57
2021/01/22 11:34:50;;;;;;;10.02;6.47;;;410.40;1177.60;;;;;;5114155;28;20028;-58
2021/01/22 11:37:15;;;;;;;18.60;6.90;;;435.20;1152.00;;;;;;5114021;28;20024;-58
2021/01/22 11:39:41;;;;;;;14.15;7.13;;;435.30;1126.40;;;;;;5114221;28;20026;-57
2021/01/22 11:42:09;;;;;;;12.15;5.75;;;435.50;1126.40;;;;;;5110877;28;20050;-57
2021/01/22 11:44:35;;;;;;;13.82;5.85;;;435.70;1100.80;;;;;;5111729;28;20110;-58
2021/01/22 11:47:02;;;;;;;11.05;6.05;;;435.60;1100.80;;;;;;5112657;28;20072;-58
2021/01/22 11:49:28;;;;;;;10.18;5.95;;;435.80;1100.80;;;;;;5112349;28;20024;-57
2021/01/22 11:51:54;;;;;;;13.65;6.28;;;435.70;1100.80;;;;;;5110605;28;20020;-57
2021/01/22 11:54:20;;;;;;;10.77;6.32;;;435.90;1100.80;;;;;;5107690;28;20020;-58
2021/01/22 11:56:51;;;;;;;11.43;7.00;;;435.90;1100.80;;;;;;5105639;28;20070;-58
2021/01/22 11:59:20;;;;;;;10.85;6.10;;;436.00;1100.80;;;;;;5097433;28;20428;-57
2021/01/22 12:01:47;;;;;;;12.55;5.65;;;436.00;1100.80;;;;;;5110091;28;20028;-57
2021/01/22 12:04:14;;;;;;;10.40;6.07;;;435.70;1100.80;;;;;;5112662;28;20057;-58
2021/01/22 12:06:40;;;;;;;10.85;6.60;;;435.80;1100.80;;;;;;5110353;28;20027;-57
2021/01/22 12:09:06;;;;;;;12.50;6.15;;;435.70;1100.80;;;;;;5109078;28;20034;-57
2021/01/22 12:11:32;;;;;;;14.07;6.10;;;435.70;1100.80;;;;;;5107985;28;20024;-57
2021/01/22 12:13:58;;;;;;;8.00;4.65;;;435.50;1126.40;;;;;;5092841;28;20046;-57